createdAt,value
2017-12-15T06:59:25.309Z,3
2017-12-15T07:07:33.231Z,7
2017-12-15T07:09:05.068Z,10
2017-12-15T07:10:36.222Z,13
2017-12-15T07:11:37.149Z,17
2017-12-15T07:12:38.174Z,20
2017-12-15T07:13:09.038Z,23
2017-12-15T07:13:39.185Z,27
2017-12-15T07:14:09.227Z,30
2017-12-15T07:15:10.196Z,33
2017-12-15T07:15:41.159Z,37
2017-12-15T07:16:11.186Z,40
2017-12-15T07:16:42.120Z,43
2017-12-15T07:17:12.144Z,47
2017-12-15T07:17:43.126Z,50
2017-12-15T07:18:13.139Z,53
2017-12-15T07:18:44.156Z,57
2017-12-15T07:19:14.176Z,60
2017-12-15T07:19:45.092Z,63
2017-12-15T07:20:46.095Z,67
2017-12-15T07:21:16.121Z,70
2017-12-15T07:21:47.131Z,73
2017-12-15T07:22:17.151Z,77
2017-12-15T07:22:48.109Z,80
2017-12-15T07:23:18.160Z,83
2017-12-15T07:23:49.091Z,87
2017-12-15T07:24:19.168Z,90
2017-12-15T07:24:50.114Z,93
2017-12-15T07:25:20.142Z,97
2017-12-15T07:25:51.125Z,103
2017-12-15T07:26:21.116Z,107
2017-12-15T07:26:52.068Z,110
2017-12-15T07:27:22.066Z,113
2017-12-15T07:27:53.024Z,120
2017-12-15T07:28:23.141Z,123
2017-12-15T07:28:54.018Z,127
2017-12-15T07:29:24.311Z,130
2017-12-15T07:29:55.021Z,133
2017-12-15T07:30:25.047Z,137
2017-12-15T07:30:56.093Z,143
2017-12-15T07:31:26.073Z,147
2017-12-15T07:31:56.990Z,150
2017-12-15T07:32:27.034Z,153
2017-12-15T07:32:57.990Z,157
2017-12-15T07:33:28.016Z,160
2017-12-15T07:33:59.008Z,163
2017-12-15T07:34:29.144Z,167
2017-12-15T07:34:59.979Z,170
2017-12-15T07:36:00.978Z,173
2017-12-15T07:37:01.986Z,177
2017-12-15T07:40:05.032Z,180
2017-12-15T07:40:35.043Z,177
2017-12-15T07:41:35.957Z,173
2017-12-15T07:42:06.921Z,170
2017-12-15T07:42:36.957Z,167
2017-12-15T07:43:07.956Z,160
2017-12-15T07:43:37.988Z,157
2017-12-15T07:44:08.898Z,153
2017-12-15T07:45:09.911Z,150
2017-12-15T07:45:39.927Z,153
2017-12-15T07:46:10.918Z,157
2017-12-15T07:46:40.926Z,163
2017-12-15T07:47:11.890Z,170
2017-12-15T07:47:41.936Z,180
2017-12-15T07:48:12.919Z,193
2017-12-15T07:48:42.933Z,203
2017-12-15T07:49:13.026Z,213
2017-12-15T07:49:42.995Z,217
2017-12-15T07:50:13.028Z,223
2017-12-15T07:50:43.055Z,230
2017-12-15T07:51:13.099Z,240
2017-12-15T07:51:43.118Z,250
2017-12-15T07:52:13.216Z,267
2017-12-15T07:52:43.180Z,287
2017-12-15T07:53:13.212Z,307
2017-12-15T07:53:43.337Z,330
2017-12-15T07:54:13.363Z,350
2017-12-15T07:54:43.308Z,373
2017-12-15T07:55:13.351Z,390
2017-12-15T07:55:43.420Z,407
2017-12-15T07:56:13.437Z,423
2017-12-15T07:56:43.506Z,430
2017-12-15T07:57:13.536Z,447
2017-12-15T07:57:43.698Z,460
2017-12-15T07:58:13.559Z,473
2017-12-15T07:58:43.623Z,490
2017-12-15T07:59:13.672Z,513
2017-12-15T07:59:43.725Z,537
2017-12-15T08:00:13.704Z,553
2017-12-15T08:00:43.694Z,563
2017-12-15T08:01:13.754Z,573
2017-12-15T08:01:43.787Z,593
2017-12-15T08:02:13.789Z,620
2017-12-15T08:02:43.829Z,630
2017-12-15T08:03:13.825Z,637
2017-12-15T08:03:43.897Z,640
2017-12-15T08:04:13.994Z,637
2017-12-15T08:04:43.953Z,633
2017-12-15T08:05:13.951Z,637
2017-12-15T08:05:44.009Z,643
2017-12-15T08:06:14.007Z,660
2017-12-15T08:06:44.075Z,683
2017-12-15T08:07:14.102Z,707
2017-12-15T08:07:44.128Z,740
2017-12-15T08:08:14.185Z,763
2017-12-15T08:08:44.480Z,780
2017-12-15T08:09:14.924Z,793
2017-12-15T08:09:44.262Z,800
2017-12-15T08:10:14.333Z,807
2017-12-15T08:10:44.346Z,810
2017-12-15T08:11:14.370Z,807
2017-12-15T08:12:14.413Z,823
2017-12-15T08:12:44.445Z,840
2017-12-15T08:13:14.451Z,847
2017-12-15T08:13:44.504Z,843
2017-12-15T08:14:14.591Z,850
2017-12-15T08:14:44.540Z,853
2017-12-15T08:15:44.643Z,870
2017-12-15T08:16:14.699Z,900
2017-12-15T08:16:44.672Z,930
2017-12-15T08:17:14.695Z,950
2017-12-15T08:18:14.750Z,940
2017-12-15T08:18:44.779Z,937
2017-12-15T08:19:14.856Z,947
2017-12-15T08:19:44.872Z,963
2017-12-15T08:20:14.862Z,980
2017-12-15T08:20:44.900Z,1003
2017-12-15T08:21:14.953Z,1013
2017-12-15T08:21:44.964Z,1040
2017-12-15T08:22:14.989Z,1093
2017-12-15T08:22:45.025Z,1150
2017-12-15T08:23:15.051Z,1207
2017-12-15T08:23:45.080Z,1260
2017-12-15T08:24:15.147Z,1300
2017-12-15T08:24:45.143Z,1360
2017-12-15T08:25:15.194Z,1423
2017-12-15T08:25:45.252Z,1920
2017-12-15T08:26:15.240Z,2560
2017-12-15T08:26:45.279Z,1920
2017-12-15T08:27:15.360Z,1457
2017-12-15T08:27:45.344Z,1443
2017-12-15T08:28:15.430Z,1423
2017-12-15T08:28:45.395Z,1530
2017-12-15T08:29:15.476Z,1503
2017-12-15T08:29:45.561Z,1603
2017-12-15T08:30:15.494Z,1787
2017-12-15T08:30:45.521Z,3107
2017-12-15T08:31:15.583Z,2937
2017-12-15T08:31:45.635Z,4170
2017-12-15T08:32:15.620Z,3737
2017-12-15T08:32:45.677Z,2300
2017-12-15T08:33:15.674Z,2350
2017-12-15T08:33:45.698Z,3723
2017-12-15T08:34:15.737Z,3090
2017-12-15T08:34:45.872Z,2663
2017-12-15T08:35:15.786Z,4613
2017-12-15T08:35:45.822Z,3983
2017-12-15T08:36:15.851Z,2597
2017-12-15T08:36:45.903Z,2467
2017-12-15T08:37:15.914Z,3470
2017-12-15T08:37:45.994Z,4173
2017-12-15T08:38:15.981Z,4283
2017-12-15T08:38:46.062Z,4463
2017-12-15T08:39:16.058Z,4947
2017-12-15T08:39:46.124Z,5210
2017-12-15T08:40:16.149Z,5100
2017-12-15T08:40:46.124Z,5110
2017-12-15T08:41:16.164Z,4760
2017-12-15T08:41:46.295Z,3670
2017-12-15T08:42:16.221Z,3743
2017-12-15T08:42:46.247Z,2143
2017-12-15T08:43:16.301Z,2210
2017-12-15T08:43:46.373Z,2207
2017-12-15T08:44:16.385Z,2347
2017-12-15T08:44:46.481Z,2540
2017-12-15T08:45:16.562Z,2483
2017-12-15T08:45:46.460Z,4137
2017-12-15T08:46:16.492Z,3660
2017-12-15T08:46:46.529Z,2673
2017-12-15T08:47:16.595Z,3113
2017-12-15T08:47:46.622Z,3840
2017-12-15T08:48:16.622Z,2847
2017-12-15T08:48:46.621Z,2690
2017-12-15T08:49:16.724Z,4577
2017-12-15T08:49:46.738Z,4493
2017-12-15T08:50:16.766Z,5560
2017-12-15T08:50:46.769Z,6400
2017-12-15T08:51:16.827Z,6903
2017-12-15T08:51:46.843Z,7100
2017-12-15T08:52:16.942Z,6920
2017-12-15T08:52:46.915Z,6497
2017-12-15T08:53:16.937Z,6353
2017-12-15T08:53:47.032Z,6310
2017-12-15T08:54:16.960Z,6497
2017-12-15T08:54:47.053Z,6763
2017-12-15T08:55:17.024Z,6833
2017-12-15T08:55:47.106Z,6750
2017-12-15T08:56:17.085Z,6620
2017-12-15T08:56:47.121Z,6470
2017-12-15T08:57:17.383Z,6127
2017-12-15T08:57:47.217Z,6093
2017-12-15T08:58:17.240Z,6180
2017-12-15T08:58:47.298Z,6383
2017-12-15T08:59:17.326Z,6637
2017-12-15T08:59:47.370Z,6613
2017-12-15T09:00:17.357Z,6637
2017-12-15T09:00:47.390Z,6743
2017-12-15T09:01:17.424Z,6870
2017-12-15T09:01:47.468Z,7023
2017-12-15T09:02:17.461Z,6650
2017-12-15T09:02:47.550Z,5590
2017-12-15T09:03:17.514Z,4620
2017-12-15T09:03:47.558Z,5663
2017-12-15T09:04:17.605Z,6187
2017-12-15T09:04:47.691Z,6087
2017-12-15T09:05:17.684Z,6660
2017-12-15T09:05:47.657Z,6473
2017-12-15T09:06:17.711Z,5377
2017-12-15T09:06:47.801Z,4533
2017-12-15T09:07:17.759Z,4063
2017-12-15T09:07:47.795Z,3913
2017-12-15T09:08:17.839Z,3663
2017-12-15T09:08:47.861Z,3357
2017-12-15T09:09:17.884Z,3383
2017-12-15T09:09:47.967Z,2930
2017-12-15T09:10:17.955Z,2933
2017-12-15T09:10:47.975Z,2850
2017-12-15T09:11:17.998Z,2737
2017-12-15T09:11:48.047Z,2617
2017-12-15T09:12:18.072Z,2493
2017-12-15T09:12:48.141Z,2377
2017-12-15T09:13:18.207Z,2240
2017-12-15T09:13:48.160Z,2157
2017-12-15T09:14:18.225Z,2087
2017-12-15T09:14:48.273Z,2033
2017-12-15T09:15:18.282Z,1940
2017-12-15T09:15:48.333Z,1850
2017-12-15T09:16:18.327Z,1773
2017-12-15T09:16:48.379Z,1763
2017-12-15T09:17:18.385Z,1790
2017-12-15T09:17:48.435Z,1837
2017-12-15T09:18:18.494Z,1880
2017-12-15T09:18:48.505Z,1917
2017-12-15T09:19:18.509Z,1953
2017-12-15T09:19:48.589Z,2000
2017-12-15T09:20:18.579Z,2057
2017-12-15T09:20:48.679Z,2120
2017-12-15T09:21:18.665Z,2160
2017-12-15T09:21:48.718Z,2187
2017-12-15T09:22:18.726Z,2183
2017-12-15T09:22:48.709Z,2160
2017-12-15T09:23:18.784Z,2130
2017-12-15T09:23:48.802Z,2067
2017-12-15T09:24:18.800Z,2030
2017-12-15T09:24:48.835Z,2080
2017-12-15T09:25:18.875Z,2083
2017-12-15T09:26:18.918Z,2110
2017-12-15T09:26:49.007Z,2100
2017-12-15T09:27:19.031Z,2083
2017-12-15T09:27:49.021Z,2093
2017-12-15T09:28:49.085Z,2053
2017-12-15T09:29:19.122Z,2047
2017-12-15T09:29:49.135Z,2030
2017-12-15T09:30:19.217Z,2010
2017-12-15T09:30:49.206Z,1983
2017-12-15T09:31:19.246Z,1927
2017-12-15T09:31:49.315Z,1870
2017-12-15T09:32:19.300Z,1827
2017-12-15T09:32:49.374Z,1807
2017-12-15T09:33:19.408Z,1797
2017-12-15T09:33:49.386Z,1780
2017-12-15T09:34:19.490Z,1800
2017-12-15T09:34:49.472Z,1823
2017-12-15T09:35:19.506Z,1827
2017-12-15T09:35:49.598Z,1873
2017-12-15T09:36:19.578Z,1910
2017-12-15T09:36:49.682Z,1917
2017-12-15T09:37:19.668Z,1927
2017-12-15T09:37:49.666Z,1937
2017-12-15T09:38:19.719Z,1920
2017-12-15T09:38:49.758Z,1843
2017-12-15T09:39:19.783Z,1800
2017-12-15T09:39:49.770Z,1770
2017-12-15T09:40:19.845Z,1717
2017-12-15T09:40:49.841Z,1653
2017-12-15T09:41:19.866Z,1580
2017-12-15T09:41:49.883Z,1523
2017-12-15T09:42:19.907Z,1513
2017-12-15T09:42:50.010Z,1490
2017-12-15T09:43:20.188Z,1450
2017-12-15T09:43:50.070Z,1403
2017-12-15T09:44:20.095Z,1387
2017-12-15T09:45:20.094Z,1383
2017-12-15T09:45:50.157Z,1387
2017-12-15T09:46:20.193Z,1380
2017-12-15T09:46:50.268Z,1400
2017-12-15T09:47:20.269Z,1413
2017-12-15T09:47:50.280Z,1443
2017-12-15T09:48:20.306Z,1450
2017-12-15T09:48:50.514Z,1433
2017-12-15T09:49:20.363Z,1393
2017-12-15T09:49:50.371Z,1380
2017-12-15T09:50:20.420Z,1387
2017-12-15T09:50:50.503Z,1373
2017-12-15T09:51:20.464Z,1367
2017-12-15T09:51:50.559Z,1363
2017-12-15T09:52:20.533Z,1333
2017-12-15T09:52:50.601Z,1297
2017-12-15T09:53:20.601Z,1230
2017-12-15T09:53:50.686Z,1153
2017-12-15T09:54:20.645Z,1117
2017-12-15T09:54:50.672Z,1153
2017-12-15T09:55:20.710Z,1207
2017-12-15T09:55:50.742Z,1217
2017-12-15T09:56:20.767Z,1207
2017-12-15T09:56:50.831Z,1217
2017-12-15T09:57:20.831Z,1207
2017-12-15T09:57:50.853Z,1177
2017-12-15T09:58:20.886Z,1223
2017-12-15T09:58:50.929Z,1243
2017-12-15T09:59:20.966Z,1237
2017-12-15T09:59:50.982Z,1277
2017-12-15T10:00:21.066Z,1300
2017-12-15T10:00:51.073Z,1317
2017-12-15T10:01:21.078Z,1370
2017-12-15T10:01:51.163Z,1427
2017-12-15T10:02:21.140Z,1453
2017-12-15T10:02:51.208Z,1477
2017-12-15T10:03:21.234Z,1510
2017-12-15T10:03:51.226Z,1553
2017-12-15T10:04:21.297Z,1630
2017-12-15T10:04:51.290Z,1730
2017-12-15T10:05:21.375Z,1817
2017-12-15T10:05:51.377Z,1903
2017-12-15T10:06:21.410Z,2040
2017-12-15T10:06:51.480Z,2150
2017-12-15T10:07:21.456Z,2217
2017-12-15T10:07:51.506Z,2253
2017-12-15T10:08:21.507Z,2263
2017-12-15T10:08:51.618Z,2307
2017-12-15T10:09:21.637Z,2357
2017-12-15T10:09:51.635Z,2393
2017-12-15T10:10:21.627Z,2457
2017-12-15T10:10:51.685Z,2527
2017-12-15T10:11:21.685Z,2537
2017-12-15T10:11:51.802Z,2527
2017-12-15T10:12:21.750Z,2550
2017-12-15T10:12:51.812Z,2610
2017-12-15T10:13:21.880Z,2737
2017-12-15T10:13:51.845Z,2877
2017-12-15T10:14:21.893Z,3050
2017-12-15T10:14:51.902Z,3240
2017-12-15T10:15:21.929Z,3353
2017-12-15T10:15:51.979Z,3413
2017-12-15T10:16:22.009Z,3463
2017-12-15T10:16:52.090Z,3417
2017-12-15T10:17:22.068Z,3290
2017-12-15T10:17:52.113Z,3207
2017-12-15T10:18:22.117Z,3160
2017-12-15T10:18:52.174Z,3073
2017-12-15T10:19:22.244Z,2963
2017-12-15T10:19:52.209Z,2773
2017-12-15T10:20:22.262Z,2573
2017-12-15T10:20:52.288Z,2550
2017-12-15T10:21:22.351Z,2580
2017-12-15T10:21:52.362Z,2553
2017-12-15T10:22:22.454Z,2473
2017-12-15T10:22:52.393Z,2413
2017-12-15T10:23:22.477Z,2390
2017-12-15T10:23:52.553Z,2317
2017-12-15T10:24:22.521Z,2247
2017-12-15T10:24:52.563Z,2110
2017-12-15T10:25:22.561Z,1953
2017-12-15T10:25:52.602Z,1853
2017-12-15T10:26:22.639Z,1777
2017-12-15T10:26:52.664Z,1733
2017-12-15T10:27:22.717Z,1750
2017-12-15T10:27:52.729Z,1787
2017-12-15T10:28:22.746Z,1783
2017-12-15T10:28:52.787Z,1770
2017-12-15T10:29:22.851Z,1723
2017-12-15T10:29:52.859Z,1690
2017-12-15T10:30:22.899Z,1660
2017-12-15T10:30:52.941Z,1657
2017-12-15T10:31:22.957Z,1600
2017-12-15T10:31:53.047Z,1590
2017-12-15T10:32:23.107Z,1630
2017-12-15T10:32:53.005Z,1707
2017-12-15T10:33:23.085Z,1763
2017-12-15T10:34:23.131Z,1743
2017-12-15T10:34:53.210Z,1763
2017-12-15T10:35:23.164Z,1883
2017-12-15T10:35:53.208Z,1967
2017-12-15T10:36:23.270Z,2080
2017-12-15T10:36:53.311Z,2227
2017-12-15T10:37:23.390Z,2287
2017-12-15T10:37:53.395Z,2197
2017-12-15T10:38:23.427Z,2153
2017-12-15T10:38:53.496Z,2073
2017-12-15T10:39:23.430Z,2030
2017-12-15T10:39:53.471Z,1870
2017-12-15T10:40:23.507Z,1660
2017-12-15T10:40:53.529Z,1617
2017-12-15T10:41:23.578Z,1607
2017-12-15T10:41:53.589Z,1653
2017-12-15T10:42:23.663Z,1660
2017-12-15T10:43:23.664Z,1580
2017-12-15T10:43:53.684Z,1550
2017-12-15T10:44:23.756Z,1500
2017-12-15T10:44:53.788Z,1453
2017-12-15T10:45:23.775Z,1413
2017-12-15T10:45:53.843Z,1397
2017-12-15T10:46:23.843Z,1380
2017-12-15T10:46:53.885Z,1350
2017-12-15T10:47:23.958Z,1367
2017-12-15T10:48:23.965Z,1437
2017-12-15T10:48:54.000Z,1507
2017-12-15T10:49:24.017Z,1533
2017-12-15T10:49:54.105Z,1543
2017-12-15T10:50:24.076Z,1587
2017-12-15T10:50:54.126Z,1643
2017-12-15T10:51:24.142Z,1630
2017-12-15T10:51:54.177Z,1627
2017-12-15T10:52:24.231Z,1600
2017-12-15T10:52:54.375Z,1683
2017-12-15T10:53:24.303Z,1663
2017-12-15T10:53:54.401Z,1557
2017-12-15T10:54:24.336Z,1440
2017-12-15T10:54:54.386Z,1393
2017-12-15T10:55:24.802Z,1403
2017-12-15T10:55:54.850Z,1443
2017-12-15T10:56:25.857Z,1497
2017-12-15T10:56:55.829Z,1500
2017-12-15T10:57:26.876Z,1470
2017-12-15T10:57:56.820Z,1473
2017-12-15T10:58:27.811Z,1493
2017-12-15T10:58:59.759Z,1557
2017-12-15T10:59:28.904Z,1647
2017-12-15T10:59:59.731Z,1747
2017-12-15T11:00:28.909Z,1883
2017-12-15T11:00:59.858Z,1953
2017-12-15T11:01:28.990Z,1960
2017-12-15T11:01:59.808Z,1957
2017-12-15T11:02:15.075Z,1913
2017-12-15T11:02:44.224Z,1827
2017-12-15T11:03:15.160Z,1797
2017-12-15T11:03:44.325Z,1847
2017-12-15T11:04:15.283Z,1920
2017-12-15T11:04:44.381Z,1973
2017-12-15T11:05:15.328Z,2067
2017-12-15T11:05:44.500Z,2220
2017-12-15T11:06:15.422Z,2370
2017-12-15T11:06:44.568Z,2537
2017-12-15T11:07:15.487Z,2757
2017-12-15T11:07:44.619Z,2957
2017-12-15T11:08:15.565Z,3177
2017-12-15T11:08:44.687Z,3440
2017-12-15T11:09:15.689Z,3713
2017-12-15T11:09:44.759Z,4000
2017-12-15T11:10:15.688Z,4340
2017-12-15T11:10:44.844Z,4690
2017-12-15T11:11:15.780Z,4983
2017-12-15T11:11:44.933Z,5150
2017-12-15T11:12:15.856Z,5263
2017-12-15T11:12:45.111Z,5363
2017-12-15T11:13:15.932Z,5557
2017-12-15T11:13:45.079Z,5683
2017-12-15T11:14:16.005Z,5660
2017-12-15T11:14:45.154Z,5563
2017-12-15T11:15:16.088Z,5457
2017-12-15T11:15:45.281Z,5393
2017-12-15T11:16:16.148Z,5377
2017-12-15T11:16:45.312Z,5470
2017-12-15T11:17:16.286Z,5597
2017-12-15T11:17:45.444Z,5740
2017-12-15T11:18:16.314Z,5913
2017-12-15T11:18:45.510Z,6050
2017-12-15T11:19:16.468Z,6130
2017-12-15T11:19:45.594Z,6117
2017-12-15T11:20:16.482Z,6087
2017-12-15T11:20:45.635Z,6017
2017-12-15T11:21:16.598Z,5907
2017-12-15T11:21:45.691Z,5833
2017-12-15T11:22:16.675Z,5740
2017-12-15T11:22:45.815Z,5610
2017-12-15T11:23:16.710Z,5410
2017-12-15T11:23:45.838Z,5170
2017-12-15T11:24:16.837Z,4870
2017-12-15T11:24:45.927Z,4593
2017-12-15T11:25:16.867Z,4327
2017-12-15T11:25:46.006Z,4067
2017-12-15T11:26:16.960Z,3733
2017-12-15T11:26:46.072Z,3393
2017-12-15T11:27:17.047Z,3077
2017-12-15T11:27:46.152Z,2770
2017-12-15T11:28:17.070Z,2557
2017-12-15T11:28:46.272Z,2413
2017-12-15T11:29:17.173Z,2310
2017-12-15T11:29:46.310Z,2287
2017-12-15T11:30:17.253Z,2290
2017-12-15T11:30:46.419Z,2347
2017-12-15T11:31:17.357Z,2460
2017-12-15T11:31:46.533Z,2597
2017-12-15T11:32:17.399Z,2847
2017-12-15T11:32:46.548Z,3110
2017-12-15T11:33:17.446Z,3550
2017-12-15T11:33:46.683Z,4030
2017-12-15T11:34:17.540Z,4563
2017-12-15T11:34:46.693Z,4950
2017-12-15T11:35:17.661Z,5257
2017-12-15T11:35:46.790Z,5453
2017-12-15T11:36:17.714Z,5710
2017-12-15T11:36:46.861Z,5953
2017-12-15T11:37:17.834Z,6227
2017-12-15T11:37:46.922Z,6560
2017-12-15T11:38:17.824Z,6900
2017-12-15T11:38:47.037Z,7153
2017-12-15T11:39:17.960Z,7243
2017-12-15T11:39:47.109Z,7030
2017-12-15T11:40:18.050Z,6573
2017-12-15T11:40:47.172Z,5970
2017-12-15T11:41:18.064Z,5230
2017-12-15T11:41:47.260Z,4603
2017-12-15T11:42:18.135Z,4117
2017-12-15T11:42:47.304Z,3777
2017-12-15T11:43:18.178Z,3527
2017-12-15T11:43:47.414Z,3360
2017-12-15T11:44:18.302Z,3283
2017-12-15T11:44:47.460Z,3233
2017-12-15T11:45:18.379Z,3197
2017-12-15T11:45:47.528Z,3157
2017-12-15T11:46:18.486Z,3127
2017-12-15T11:46:47.557Z,3130
2017-12-15T11:47:18.503Z,3127
2017-12-15T11:47:47.644Z,3117
2017-12-15T11:48:18.609Z,3103
2017-12-15T11:48:47.790Z,3083
2017-12-15T11:49:18.620Z,3070
2017-12-15T11:49:47.756Z,3050
2017-12-15T11:50:18.704Z,3023
2017-12-15T11:50:47.821Z,3007
2017-12-15T11:51:18.764Z,3000
2017-12-15T11:51:47.958Z,3003
2017-12-15T11:52:18.932Z,3017
2017-12-15T11:52:49.098Z,3033
2017-12-15T11:53:20.104Z,3037
2017-12-15T11:54:21.194Z,3040
2017-12-15T11:54:51.065Z,3027
2017-12-15T11:55:22.139Z,3020
2017-12-15T11:56:53.120Z,3027
2017-12-15T11:57:24.136Z,3023
2017-12-15T11:57:54.052Z,3017
2017-12-15T11:58:25.049Z,3030
2017-12-15T11:58:55.110Z,3033
2017-12-15T11:59:26.177Z,3043
2017-12-15T11:59:56.059Z,3050
2017-12-15T12:00:27.078Z,3063
2017-12-15T12:00:56.257Z,3100
2017-12-15T12:01:27.241Z,3143
2017-12-15T12:01:56.339Z,3200
2017-12-15T12:02:27.396Z,3193
2017-12-15T12:02:57.387Z,3213
2017-12-15T12:03:27.416Z,3237
2017-12-15T12:03:57.424Z,3277
2017-12-15T12:04:28.432Z,3333
2017-12-15T12:04:58.465Z,3413
2017-12-15T12:05:28.566Z,3497
2017-12-15T12:05:58.646Z,3557
2017-12-15T12:06:29.596Z,3577
2017-12-15T12:06:59.579Z,3540
2017-12-15T12:07:30.641Z,3457
2017-12-15T12:08:00.880Z,3413
2017-12-15T12:08:31.696Z,3380
2017-12-15T12:09:01.655Z,3370
2017-12-15T12:09:31.801Z,3373
2017-12-15T12:10:01.724Z,3380
2017-12-15T12:10:32.693Z,3390
2017-12-15T12:11:02.705Z,3407
2017-12-15T12:11:32.851Z,3390
2017-12-15T12:12:02.899Z,3387
2017-12-15T12:12:32.900Z,3360
2017-12-15T12:13:02.939Z,3353
2017-12-15T12:13:32.955Z,3343
2017-12-15T12:14:33.530Z,3250
2017-12-15T12:15:03.478Z,3187
2017-12-15T12:15:33.511Z,3293
2017-12-15T12:16:03.517Z,3370
2017-12-15T12:16:33.542Z,3423
2017-12-15T12:17:03.545Z,3390
2017-12-15T12:17:33.650Z,3427
2017-12-15T12:18:03.608Z,3307
2017-12-15T12:18:33.701Z,3310
2017-12-15T12:19:03.678Z,3327
2017-12-15T12:19:33.768Z,3490
2017-12-15T12:20:03.801Z,3637
2017-12-15T12:20:33.809Z,3607
2017-12-15T12:21:03.788Z,3440
2017-12-15T12:21:33.862Z,3613
2017-12-15T12:22:03.863Z,3663
2017-12-15T12:22:33.908Z,3830
2017-12-15T12:23:03.909Z,3887
2017-12-15T12:23:33.978Z,3940
2017-12-15T12:24:03.970Z,3997
2017-12-15T12:24:34.049Z,4077
2017-12-15T12:25:04.130Z,4130
2017-12-15T12:25:34.088Z,4060
2017-12-15T12:26:04.166Z,3993
2017-12-15T12:26:34.141Z,4067
2017-12-15T12:27:04.162Z,4200
2017-12-15T12:27:34.231Z,4250
2017-12-15T12:28:04.230Z,4080
2017-12-15T12:28:34.317Z,4027
2017-12-15T12:29:04.347Z,3730
2017-12-15T12:29:34.410Z,3420
2017-12-15T12:30:04.388Z,3347
2017-12-15T12:30:34.441Z,3447
2017-12-15T12:31:04.441Z,3467
2017-12-15T12:31:34.497Z,3517
2017-12-15T12:32:04.500Z,3557
2017-12-15T12:32:34.588Z,3527
2017-12-15T12:33:04.606Z,3407
2017-12-15T12:33:34.588Z,3223
2017-12-15T12:34:04.624Z,3093
2017-12-15T12:34:34.722Z,3007
2017-12-15T12:35:04.686Z,2947
2017-12-15T12:35:34.781Z,2933
2017-12-15T12:36:04.773Z,2957
2017-12-15T12:36:34.822Z,2980
2017-12-15T12:37:04.832Z,2983
2017-12-15T12:37:34.887Z,2963
2017-12-15T12:38:04.876Z,2947
2017-12-15T12:38:34.912Z,2920
2017-12-15T12:39:04.967Z,2910
2017-12-15T12:39:34.995Z,2903
2017-12-15T12:40:05.047Z,2917
2017-12-15T12:40:35.066Z,2943
2017-12-15T12:41:05.020Z,3010
2017-12-15T12:41:35.096Z,3027
2017-12-15T12:42:05.097Z,3000
2017-12-15T12:42:35.171Z,3023
2017-12-15T12:43:05.208Z,3073
2017-12-15T12:43:35.256Z,3017
2017-12-15T12:44:05.235Z,2983
2017-12-15T12:44:35.367Z,2970
2017-12-15T12:45:05.316Z,2943
2017-12-15T12:45:35.360Z,2857
2017-12-15T12:46:05.358Z,2907
2017-12-15T12:46:35.435Z,2857
2017-12-15T12:47:05.420Z,2767
2017-12-15T12:47:35.464Z,2757
2017-12-15T12:48:05.516Z,2773
2017-12-15T12:48:35.551Z,2793
2017-12-15T12:49:05.544Z,2760
2017-12-15T12:49:35.657Z,2733
2017-12-15T12:50:35.635Z,2763
2017-12-15T12:51:35.679Z,2777
2017-12-15T12:52:05.704Z,2773
2017-12-15T12:52:35.751Z,2767
2017-12-15T12:53:05.760Z,2610
2017-12-15T12:53:35.833Z,2747
2017-12-15T12:54:05.835Z,2763
2017-12-15T12:54:35.937Z,2773
2017-12-15T12:55:05.943Z,2753
2017-12-15T12:55:35.930Z,2703
2017-12-15T12:56:05.946Z,2707
2017-12-15T12:56:35.988Z,2703
2017-12-15T12:57:06.003Z,2683
2017-12-15T12:57:36.049Z,2623
2017-12-15T12:58:06.064Z,2660
2017-12-15T12:58:36.107Z,2717
2017-12-15T12:59:06.162Z,2690
2017-12-15T12:59:36.286Z,2513
2017-12-15T13:00:06.191Z,2523
2017-12-15T13:00:36.293Z,2623
2017-12-15T13:01:06.326Z,2677
2017-12-15T13:01:36.336Z,2737
2017-12-15T13:02:06.337Z,2683
2017-12-15T13:02:36.407Z,2587
2017-12-15T13:03:06.430Z,2583
2017-12-15T13:03:36.494Z,2723
2017-12-15T13:04:06.471Z,2717
2017-12-15T13:04:36.515Z,2667
2017-12-15T13:05:06.538Z,2600
2017-12-15T13:05:36.565Z,2540
2017-12-15T13:06:06.618Z,2453
2017-12-15T13:06:37.096Z,2493
2017-12-15T13:07:07.123Z,2483
2017-12-15T13:07:37.196Z,2533
2017-12-15T13:08:07.179Z,2553
2017-12-15T13:08:37.275Z,2467
2017-12-15T13:09:07.308Z,2437
2017-12-15T13:09:37.352Z,2470
2017-12-15T13:10:07.357Z,2480
2017-12-15T13:10:37.424Z,2800
2017-12-15T13:11:07.442Z,2740
2017-12-15T13:11:37.441Z,3573
2017-12-15T13:12:07.487Z,3487
2017-12-15T13:12:37.507Z,2690
2017-12-15T13:13:07.516Z,2547
2017-12-15T13:13:37.585Z,2597
2017-12-15T13:14:07.589Z,2997
2017-12-15T13:14:39.158Z,2637
2017-12-15T13:15:07.634Z,2567
2017-12-15T13:15:37.674Z,2643
2017-12-15T13:16:07.666Z,2750
2017-12-15T13:16:37.727Z,2530
2017-12-15T13:17:07.760Z,5110
2017-12-15T13:17:37.810Z,2833
2017-12-15T13:18:07.851Z,2603
2017-12-15T13:18:37.877Z,2663
2017-12-15T13:19:07.935Z,4543
2017-12-15T13:19:38.005Z,7917
2017-12-15T13:20:07.986Z,8847
2017-12-15T13:20:38.250Z,6023
2017-12-15T13:21:08.058Z,2860
2017-12-15T13:21:38.026Z,3433
2017-12-15T13:22:08.129Z,3193
2017-12-15T13:22:38.118Z,8320
2017-12-15T13:23:08.149Z,7683
2017-12-15T13:23:38.177Z,6810
2017-12-15T13:24:08.236Z,3467
2017-12-15T13:24:38.345Z,2707
2017-12-15T13:25:38.332Z,2513
2017-12-15T13:26:08.330Z,3230
2017-12-15T13:26:38.349Z,6830
2017-12-15T13:27:08.384Z,6663
2017-12-15T13:27:38.460Z,8050
2017-12-15T13:28:08.439Z,7827
2017-12-15T13:28:38.457Z,2873
2017-12-15T13:29:08.472Z,3420
2017-12-15T13:29:38.573Z,6863
2017-12-15T13:30:08.539Z,7453
2017-12-15T13:30:38.595Z,4773
2017-12-15T13:31:08.655Z,3303
2017-12-15T13:31:38.660Z,2463
2017-12-15T13:32:08.709Z,3617
2017-12-15T13:32:38.725Z,3757
2017-12-15T13:33:08.728Z,4620
2017-12-15T13:33:38.764Z,7297
2017-12-15T13:34:08.786Z,6470
2017-12-15T13:34:40.329Z,6007
2017-12-15T13:35:08.832Z,5820
2017-12-15T13:35:38.898Z,5543
2017-12-15T13:36:08.916Z,3307
2017-12-15T13:36:38.945Z,2407
2017-12-15T13:37:09.013Z,2433
2017-12-15T13:37:39.010Z,2580
2017-12-15T13:38:09.019Z,2433
2017-12-15T13:38:39.066Z,2373
2017-12-15T13:39:09.100Z,2333
2017-12-15T13:39:39.171Z,2270
2017-12-15T13:40:09.157Z,2227
2017-12-15T13:40:39.233Z,2217
2017-12-15T13:41:09.221Z,2173
2017-12-15T13:41:39.248Z,2093
2017-12-15T13:42:09.263Z,2027
2017-12-15T13:42:39.343Z,1987
2017-12-15T13:43:09.338Z,1970
2017-12-15T13:43:39.427Z,1967
2017-12-15T13:44:09.411Z,1977
2017-12-15T13:44:39.537Z,1993
2017-12-15T13:45:09.484Z,2003
2017-12-15T13:45:39.546Z,1973
2017-12-15T13:46:09.527Z,1937
2017-12-15T13:46:39.590Z,1943
2017-12-15T13:47:09.582Z,1977
2017-12-15T13:47:39.648Z,1990
2017-12-15T13:48:39.677Z,1980
2017-12-15T13:49:09.757Z,1990
2017-12-15T13:49:39.825Z,2020
2017-12-15T13:50:09.795Z,2077
2017-12-15T13:51:10.009Z,2013
2017-12-15T13:51:40.045Z,1913
2017-12-15T13:52:10.061Z,1880
2017-12-15T13:52:40.158Z,1860
2017-12-15T13:53:10.127Z,1847
2017-12-15T13:53:40.220Z,1837
2017-12-15T13:54:10.187Z,1830
2017-12-15T13:54:40.291Z,1827
2017-12-15T13:55:10.330Z,1823
2017-12-15T13:55:40.300Z,1830
2017-12-15T13:56:10.424Z,1847
2017-12-15T13:56:40.366Z,1873
2017-12-15T13:57:10.393Z,1917
2017-12-15T13:57:40.420Z,1967
2017-12-15T13:58:10.477Z,2037
2017-12-15T13:58:40.486Z,2110
2017-12-15T13:59:10.572Z,2150
2017-12-15T13:59:40.625Z,2220
2017-12-15T14:00:10.600Z,2233
2017-12-15T14:00:40.636Z,2190
2017-12-15T14:01:10.669Z,2147
2017-12-15T14:01:40.713Z,2117
2017-12-15T14:02:10.737Z,2087
2017-12-15T14:02:40.725Z,2027
2017-12-15T14:03:10.793Z,1980
2017-12-15T14:03:40.864Z,1930
2017-12-15T14:04:10.887Z,1860
2017-12-15T14:04:40.874Z,1797
2017-12-15T14:05:10.894Z,1700
2017-12-15T14:05:40.926Z,1577
2017-12-15T14:06:11.007Z,1440
2017-12-15T14:06:40.994Z,1303
2017-12-15T14:07:11.013Z,1200